sensor_id;sensor_type;location;lat;lon;timestamp;pressure;altitude;pressure_sealevel;temperature;humidity
63399;BME280;49533;-34.520;150.798;2022-12-07T00:01:29;99408.03;;;21.97;61.24
63399;BME280;49533;-34.520;150.798;2022-12-07T00:03:59;99414.72;;;22.00;61.12
63399;BME280;49533;-34.520;150.798;2022-12-07T00:06:33;99409.66;;;21.95;61.19
63399;BME280;49533;-34.520;150.798;2022-12-07T00:09:01;99401.69;;;22.00;60.58
63399;BME280;49533;-34.520;150.798;2022-12-07T00:11:28;99406.81;;;22.02;60.99
63399;BME280;49533;-34.520;150.798;2022-12-07T00:13:59;99408.38;;;22.03;61.19
63399;BME280;49533;-34.520;150.798;2022-12-07T00:16:29;99409.13;;;22.07;61.12
63399;BME280;49533;-34.520;150.798;2022-12-07T00:18:57;99409.06;;;22.14;61.08
63399;BME280;49533;-34.520;150.798;2022-12-07T00:21:27;99399.94;;;22.13;60.04
63399;BME280;49533;-34.520;150.798;2022-12-07T00:23:55;99401.22;;;22.09;60.38
63399;BME280;49533;-34.520;150.798;2022-12-07T00:26:27;99410.31;;;22.06;60.36
63399;BME280;49533;-34.520;150.798;2022-12-07T00:28:56;99397.69;;;22.05;60.48
63399;BME280;49533;-34.520;150.798;2022-12-07T00:31:26;99411.06;;;22.10;61.00
63399;BME280;49533;-34.520;150.798;2022-12-07T00:33:54;99406.75;;;22.09;60.70
63399;BME280;49533;-34.520;150.798;2022-12-07T00:36:23;99385.38;;;22.09;60.86
63399;BME280;49533;-34.520;150.798;2022-12-07T00:38:50;99386.13;;;22.13;60.73
63399;BME280;49533;-34.520;150.798;2022-12-07T00:41:21;99382.53;;;22.17;60.73
63399;BME280;49533;-34.520;150.798;2022-12-07T00:43:49;99378.97;;;22.20;60.25
63399;BME280;49533;-34.520;150.798;2022-12-07T00:46:18;99378.56;;;22.18;60.35
63399;BME280;49533;-34.520;150.798;2022-12-07T00:48:46;99376.22;;;22.20;60.49
63399;BME280;49533;-34.520;150.798;2022-12-07T00:51:16;99386.06;;;22.21;60.53
63399;BME280;49533;-34.520;150.798;2022-12-07T00:53:43;99390.81;;;22.20;60.63
63399;BME280;49533;-34.520;150.798;2022-12-07T00:56:20;99387.66;;;22.22;60.60
63399;BME280;49533;-34.520;150.798;2022-12-07T00:58:56;99384.50;;;22.20;60.78
63399;BME280;49533;-34.520;150.798;2022-12-07T01:01:25;99383.31;;;22.21;60.49
63399;BME280;49533;-34.520;150.798;2022-12-07T01:03:53;99380.91;;;22.23;60.85
63399;BME280;49533;-34.520;150.798;2022-12-07T01:06:22;99389.13;;;22.30;60.60
63399;BME280;49533;-34.520;150.798;2022-12-07T01:08:50;99388.66;;;22.35;60.72
63399;BME280;49533;-34.520;150.798;2022-12-07T01:11:20;99379.53;;;22.38;60.67
63399;BME280;49533;-34.520;150.798;2022-12-07T01:13:50;99381.06;;;22.43;60.84
63399;BME280;49533;-34.520;150.798;2022-12-07T01:16:19;99372.69;;;22.46;60.58
63399;BME280;49533;-34.520;150.798;2022-12-07T01:18:50;99369.09;;;22.49;60.37
63399;BME280;49533;-34.520;150.798;2022-12-07T01:21:21;99363.94;;;22.51;60.83
63399;BME280;49533;-34.520;150.798;2022-12-07T01:23:49;99365.84;;;22.54;60.73
63399;BME280;49533;-34.520;150.798;2022-12-07T01:26:21;99378.09;;;22.57;60.69
63399;BME280;49533;-34.520;150.798;2022-12-07T01:28:48;99374.50;;;22.60;60.73
63399;BME280;49533;-34.520;150.798;2022-12-07T01:31:18;99368.13;;;22.63;60.74
63399;BME280;49533;-34.520;150.798;2022-12-07T01:33:50;99372.06;;;22.66;60.60
63399;BME280;49533;-34.520;150.798;2022-12-07T01:36:23;99359.75;;;22.67;60.33
63399;BME280;49533;-34.520;150.798;2022-12-07T01:38:54;99357.38;;;22.69;60.37
63399;BME280;49533;-34.520;150.798;2022-12-07T01:41:24;99362.06;;;22.72;60.26
63399;BME280;49533;-34.520;150.798;2022-12-07T01:44:08;99351.34;;;22.74;60.16
63399;BME280;49533;-34.520;150.798;2022-12-07T01:46:36;99345.75;;;22.77;60.21
63399;BME280;49533;-34.520;150.798;2022-12-07T01:49:06;99352.44;;;22.80;60.12
63399;BME280;49533;-34.520;150.798;2022-12-07T01:51:37;99343.31;;;22.83;60.10
63399;BME280;49533;-34.520;150.798;2022-12-07T01:54:08;99342.50;;;22.83;59.57
63399;BME280;49533;-34.520;150.798;2022-12-07T01:56:37;99346.44;;;22.85;59.27
63399;BME280;49533;-34.520;150.798;2022-12-07T01:59:06;99351.16;;;22.88;59.28
63399;BME280;49533;-34.520;150.798;2022-12-07T02:01:33;99354.28;;;22.90;59.38
63399;BME280;49533;-34.520;150.798;2022-12-07T02:04:00;99340.00;;;22.92;59.27
63399;BME280;49533;-34.520;150.798;2022-12-07T02:06:27;99339.16;;;22.95;59.12
63399;BME280;49533;-34.520;150.798;2022-12-07T02:08:54;99343.13;;;22.97;59.10
63399;BME280;49533;-34.520;150.798;2022-12-07T02:11:22;99343.13;;;22.97;59.02
63399;BME280;49533;-34.520;150.798;2022-12-07T02:13:49;99337.53;;;23.01;59.26
63399;BME280;49533;-34.520;150.798;2022-12-07T02:16:31;99335.09;;;23.03;59.17
63399;BME280;49533;-34.520;150.798;2022-12-07T02:22:02;99328.31;;;23.08;58.36
63399;BME280;49533;-34.520;150.798;2022-12-07T02:24:54;99331.44;;;23.10;58.36
63399;BME280;49533;-34.520;150.798;2022-12-07T02:30:20;99338.50;;;23.14;57.64
63399;BME280;49533;-34.520;150.798;2022-12-07T02:33:00;99335.28;;;23.16;57.31
63399;BME280;49533;-34.520;150.798;2022-12-07T02:35:43;99321.81;;;23.18;55.21
63399;BME280;49533;-34.520;150.798;2022-12-07T02:38:20;99322.66;;;23.15;52.87
63399;BME280;49533;-34.520;150.798;2022-12-07T02:41:06;99310.00;;;23.14;52.47
63399;BME280;49533;-34.520;150.798;2022-12-07T02:43:41;99304.47;;;23.14;52.15
63399;BME280;49533;-34.520;150.798;2022-12-07T02:46:17;99319.09;;;23.14;51.64
63399;BME280;49533;-34.520;150.798;2022-12-07T02:48:45;99325.78;;;23.17;50.91
63399;BME280;49533;-34.520;150.798;2022-12-07T02:51:14;99304.03;;;23.15;49.05
63399;BME280;49533;-34.520;150.798;2022-12-07T02:53:42;99302.88;;;23.13;47.71
63399;BME280;49533;-34.520;150.798;2022-12-07T02:56:32;99309.66;;;23.12;46.67
63399;BME280;49533;-34.520;150.798;2022-12-07T02:59:26;99305.63;;;23.16;46.78
63399;BME280;49533;-34.520;150.798;2022-12-07T03:02:01;99302.78;;;23.20;43.30
63399;BME280;49533;-34.520;150.798;2022-12-07T03:04:40;99306.41;;;23.17;43.44
63399;BME280;49533;-34.520;150.798;2022-12-07T03:10:27;99289.81;;;23.13;43.72
63399;BME280;49533;-34.520;150.798;2022-12-07T03:13:20;99291.03;;;23.12;43.82
63399;BME280;49533;-34.520;150.798;2022-12-07T03:15:58;99288.63;;;23.14;43.33
63399;BME280;49533;-34.520;150.798;2022-12-07T03:18:32;99285.09;;;23.14;43.70
63399;BME280;49533;-34.520;150.798;2022-12-07T03:21:06;99288.19;;;23.16;43.93
63399;BME280;49533;-34.520;150.798;2022-12-07T03:23:39;99275.91;;;23.17;43.79
63399;BME280;49533;-34.520;150.798;2022-12-07T03:26:10;99273.91;;;23.17;43.86
63399;BME280;49533;-34.520;150.798;2022-12-07T03:28:44;99257.66;;;23.19;43.85
63399;BME280;49533;-34.520;150.798;2022-12-07T03:31:17;99252.91;;;23.20;43.51
63399;BME280;49533;-34.520;150.798;2022-12-07T03:34:08;99244.59;;;23.20;43.62
63399;BME280;49533;-34.520;150.798;2022-12-07T03:36:50;99244.59;;;23.20;43.79
63399;BME280;49533;-34.520;150.798;2022-12-07T03:39:29;99248.56;;;23.19;43.92
63399;BME280;49533;-34.520;150.798;2022-12-07T03:42:01;99247.34;;;23.20;43.71
63399;BME280;49533;-34.520;150.798;2022-12-07T03:44:34;99237.50;;;23.19;43.88
63399;BME280;49533;-34.520;150.798;2022-12-07T03:47:11;99243.38;;;23.21;43.85
63399;BME280;49533;-34.520;150.798;2022-12-07T03:49:48;99218.44;;;23.21;43.06
63399;BME280;49533;-34.520;150.798;2022-12-07T03:52:42;99224.78;;;23.21;42.89
63399;BME280;49533;-34.520;150.798;2022-12-07T03:55:23;99224.34;;;23.23;42.13
63399;BME280;49533;-34.520;150.798;2022-12-07T03:57:56;99227.88;;;23.23;41.84
63399;BME280;49533;-34.520;150.798;2022-12-07T04:00:25;99225.13;;;23.23;41.67
63399;BME280;49533;-34.520;150.798;2022-12-07T04:02:53;99229.47;;;23.25;41.71
63399;BME280;49533;-34.520;150.798;2022-12-07T04:05:22;99226.25;;;23.26;41.33
63399;BME280;49533;-34.520;150.798;2022-12-07T04:07:50;99231.78;;;23.26;40.91
63399;BME280;49533;-34.520;150.798;2022-12-07T04:10:17;99233.78;;;23.26;40.80
63399;BME280;49533;-34.520;150.798;2022-12-07T04:12:45;99238.91;;;23.27;41.29
63399;BME280;49533;-34.520;150.798;2022-12-07T04:15:12;99229.03;;;23.26;40.71
63399;BME280;49533;-34.520;150.798;2022-12-07T04:17:39;99231.78;;;23.26;40.73
63399;BME280;49533;-34.520;150.798;2022-12-07T04:20:07;99240.09;;;23.26;41.03
63399;BME280;49533;-34.520;150.798;2022-12-07T04:22:35;99238.91;;;23.27;41.29
63399;BME280;49533;-34.520;150.798;2022-12-07T04:25:03;99238.91;;;23.27;40.92
63399;BME280;49533;-34.520;150.798;2022-12-07T04:27:30;99234.56;;;23.26;41.28
63399;BME280;49533;-34.520;150.798;2022-12-07T04:29:57;99227.84;;;23.27;40.99
63399;BME280;49533;-34.520;150.798;2022-12-07T04:32:25;99227.84;;;23.27;40.89
63399;BME280;49533;-34.520;150.798;2022-12-07T04:34:52;99219.53;;;23.27;40.83
63399;BME280;49533;-34.520;150.798;2022-12-07T04:37:19;99217.13;;;23.29;40.69
63399;BME280;49533;-34.520;150.798;2022-12-07T04:39:46;99215.91;;;23.30;40.51
63399;BME280;49533;-34.520;150.798;2022-12-07T04:42:13;99225.44;;;23.29;40.58
63399;BME280;49533;-34.520;150.798;2022-12-07T04:44:40;99230.97;;;23.29;40.51
63399;BME280;49533;-34.520;150.798;2022-12-07T04:47:07;99222.28;;;23.27;40.00
63399;BME280;49533;-34.520;150.798;2022-12-07T04:49:34;99202.91;;;23.27;39.12
63399;BME280;49533;-34.520;150.798;2022-12-07T04:52:02;99197.34;;;23.27;39.19
63399;BME280;49533;-34.520;150.798;2022-12-07T04:54:29;99172.84;;;23.26;38.94
63399;BME280;49533;-34.520;150.798;2022-12-07T04:56:57;99190.59;;;23.28;39.01
63399;BME280;49533;-34.520;150.798;2022-12-07T04:59:24;99182.16;;;23.35;37.96
63399;BME280;49533;-34.520;150.798;2022-12-07T05:01:51;99180.78;;;23.43;37.79
63399;BME280;49533;-34.520;150.798;2022-12-07T05:04:18;99161.16;;;23.54;37.00
63399;BME280;49533;-34.520;150.798;2022-12-07T05:06:45;99160.75;;;23.56;37.23
63399;BME280;49533;-34.520;150.798;2022-12-07T05:09:12;99153.13;;;23.60;36.60
63399;BME280;49533;-34.520;150.798;2022-12-07T05:11:39;99138.31;;;23.66;36.31
63399;BME280;49533;-34.520;150.798;2022-12-07T05:14:15;99135.91;;;23.69;36.76
63399;BME280;49533;-34.520;150.798;2022-12-07T05:16:44;99141.44;;;23.69;36.97
63399;BME280;49533;-34.520;150.798;2022-12-07T05:19:12;99129.47;;;23.75;36.83
63399;BME280;49533;-34.520;150.798;2022-12-07T05:21:39;99121.47;;;23.77;37.06
63399;BME280;49533;-34.520;150.798;2022-12-07T05:24:10;99118.28;;;23.79;36.92
63399;BME280;49533;-34.520;150.798;2022-12-07T05:26:38;99122.91;;;23.85;36.78
63399;BME280;49533;-34.520;150.798;2022-12-07T05:29:06;99142.63;;;23.87;36.83
63399;BME280;49533;-34.520;150.798;2022-12-07T05:31:33;99146.22;;;23.88;36.93
63399;BME280;49533;-34.520;150.798;2022-12-07T05:34:00;99151.31;;;23.90;37.20
63399;BME280;49533;-34.520;150.798;2022-12-07T05:36:28;99143.34;;;23.92;37.53
63399;BME280;49533;-34.520;150.798;2022-12-07T05:38:57;99142.94;;;23.93;37.39
63399;BME280;49533;-34.520;150.798;2022-12-07T05:41:25;99135.28;;;23.97;37.01
63399;BME280;49533;-34.520;150.798;2022-12-07T05:44:04;99144.38;;;23.98;36.82
63399;BME280;49533;-34.520;150.798;2022-12-07T05:46:32;99155.06;;;23.99;36.92
63399;BME280;49533;-34.520;150.798;2022-12-07T05:48:59;99145.81;;;24.06;35.53
63399;BME280;49533;-34.520;150.798;2022-12-07T05:51:26;99147.00;;;24.05;35.74
63399;BME280;49533;-34.520;150.798;2022-12-07T05:53:54;99149.72;;;24.08;35.21
63399;BME280;49533;-34.520;150.798;2022-12-07T05:56:21;99147.34;;;24.07;35.50
63399;BME280;49533;-34.520;150.798;2022-12-07T05:58:49;99139.81;;;24.07;35.45
63399;BME280;49533;-34.520;150.798;2022-12-07T06:01:28;99144.56;;;24.07;35.20
63399;BME280;49533;-34.520;150.798;2022-12-07T06:03:55;99143.81;;;24.06;35.07
63399;BME280;49533;-34.520;150.798;2022-12-07T06:06:22;99146.13;;;24.08;33.99
63399;BME280;49533;-34.520;150.798;2022-12-07T06:08:49;99142.22;;;24.05;34.48
63399;BME280;49533;-34.520;150.798;2022-12-07T06:11:16;99139.19;;;24.00;34.42
63399;BME280;49533;-34.520;150.798;2022-12-07T06:13:55;99134.50;;;23.97;34.86
63399;BME280;49533;-34.520;150.798;2022-12-07T06:16:23;99123.25;;;24.04;34.18
63399;BME280;49533;-34.520;150.798;2022-12-07T06:18:50;99122.81;;;24.05;34.51
63399;BME280;49533;-34.520;150.798;2022-12-07T06:21:17;99108.50;;;24.07;34.11
63399;BME280;49533;-34.520;150.798;2022-12-07T06:23:44;99096.03;;;23.99;34.64
63399;BME280;49533;-34.520;150.798;2022-12-07T06:26:12;99091.16;;;24.03;34.45
63399;BME280;49533;-34.520;150.798;2022-12-07T06:28:42;99076.44;;;24.06;34.73
63399;BME280;49533;-34.520;150.798;2022-12-07T06:31:10;99078.88;;;24.04;34.81
63399;BME280;49533;-34.520;150.798;2022-12-07T06:33:37;99093.50;;;24.04;35.30
63399;BME280;49533;-34.520;150.798;2022-12-07T06:36:04;99102.72;;;24.01;35.78
63399;BME280;49533;-34.520;150.798;2022-12-07T06:38:31;99105.03;;;24.03;34.58
63399;BME280;49533;-34.520;150.798;2022-12-07T06:40:58;99114.94;;;24.04;34.41
63399;BME280;49533;-34.520;150.798;2022-12-07T06:43:26;99118.38;;;24.08;34.33
63399;BME280;49533;-34.520;150.798;2022-12-07T06:45:54;99135.91;;;24.05;33.72
63399;BME280;49533;-34.520;150.798;2022-12-07T06:48:21;99154.97;;;24.03;33.65
63399;BME280;49533;-34.520;150.798;2022-12-07T06:50:48;99134.50;;;23.97;34.31
63399;BME280;49533;-34.520;150.798;2022-12-07T06:53:19;99121.06;;;23.95;34.33
63399;BME280;49533;-34.520;150.798;2022-12-07T06:55:46;99110.66;;;23.99;34.79
63399;BME280;49533;-34.520;150.798;2022-12-07T06:58:14;99136.94;;;23.95;34.85
63399;BME280;49533;-34.520;150.798;2022-12-07T07:00:42;99136.41;;;24.00;33.94
63399;BME280;49533;-34.520;150.798;2022-12-07T07:03:12;99129.31;;;23.99;34.13
63399;BME280;49533;-34.520;150.798;2022-12-07T07:05:39;99123.41;;;23.97;33.67
63399;BME280;49533;-34.520;150.798;2022-12-07T07:08:08;99121.50;;;23.94;33.52
63399;BME280;49533;-34.520;150.798;2022-12-07T07:10:35;99111.97;;;23.95;34.06
63399;BME280;49533;-34.520;150.798;2022-12-07T07:13:03;99108.50;;;23.91;34.18
63399;BME280;49533;-34.520;150.798;2022-12-07T07:15:31;99102.97;;;23.91;34.64
63399;BME280;49533;-34.520;150.798;2022-12-07T07:17:59;99112.94;;;23.88;34.61
63399;BME280;49533;-34.520;150.798;2022-12-07T07:20:26;99096.28;;;23.88;34.98
63399;BME280;49533;-34.520;150.798;2022-12-07T07:22:55;99089.94;;;23.87;34.58
63399;BME280;49533;-34.520;150.798;2022-12-07T07:25:22;99099.56;;;23.83;34.10
63399;BME280;49533;-34.520;150.798;2022-12-07T07:27:49;99093.59;;;23.84;35.17
63399;BME280;49533;-34.520;150.798;2022-12-07T07:30:17;99087.63;;;23.86;35.18
63399;BME280;49533;-34.520;150.798;2022-12-07T07:32:45;99080.84;;;23.87;35.16
63399;BME280;49533;-34.520;150.798;2022-12-07T07:35:12;99080.84;;;23.87;35.62
63399;BME280;49533;-34.520;150.798;2022-12-07T07:37:40;99106.16;;;23.89;35.75
63399;BME280;49533;-34.520;150.798;2022-12-07T07:40:09;99106.16;;;23.89;35.80
63399;BME280;49533;-34.520;150.798;2022-12-07T07:42:36;99105.38;;;23.89;35.88
63399;BME280;49533;-34.520;150.798;2022-12-07T07:45:04;99112.47;;;23.90;36.24
63399;BME280;49533;-34.520;150.798;2022-12-07T07:47:31;99131.13;;;23.89;36.41
63399;BME280;49533;-34.520;150.798;2022-12-07T07:49:58;99139.03;;;23.91;36.35
63399;BME280;49533;-34.520;150.798;2022-12-07T07:52:26;99140.22;;;23.90;36.40
63399;BME280;49533;-34.520;150.798;2022-12-07T07:54:53;99141.44;;;23.89;36.42
63399;BME280;49533;-34.520;150.798;2022-12-07T07:57:20;99151.31;;;23.90;36.83
63399;BME280;49533;-34.520;150.798;2022-12-07T07:59:47;99147.75;;;23.89;36.55
63399;BME280;49533;-34.520;150.798;2022-12-07T08:02:17;99122.81;;;23.89;36.92
63399;BME280;49533;-34.520;150.798;2022-12-07T08:04:46;99127.56;;;23.89;36.88
63399;BME280;49533;-34.520;150.798;2022-12-07T08:07:14;99133.13;;;23.89;37.16
63399;BME280;49533;-34.520;150.798;2022-12-07T08:09:42;99155.31;;;23.89;37.13
63399;BME280;49533;-34.520;150.798;2022-12-07T08:12:09;99146.63;;;23.86;36.98
63399;BME280;49533;-34.520;150.798;2022-12-07T08:14:36;99135.97;;;23.85;36.99
63399;BME280;49533;-34.520;150.798;2022-12-07T08:17:03;99132.41;;;23.84;36.85
63399;BME280;49533;-34.520;150.798;2022-12-07T08:19:31;99130.84;;;23.83;36.93
63399;BME280;49533;-34.520;150.798;2022-12-07T08:21:58;99135.63;;;23.83;37.07
63399;BME280;49533;-34.520;150.798;2022-12-07T08:24:25;99134.81;;;23.82;36.66
63399;BME280;49533;-34.520;150.798;2022-12-07T08:26:52;99124.97;;;23.81;36.99
63399;BME280;49533;-34.520;150.798;2022-12-07T08:29:20;99123.72;;;23.82;36.80
63399;BME280;49533;-34.520;150.798;2022-12-07T08:31:47;99116.63;;;23.81;36.98
63399;BME280;49533;-34.520;150.798;2022-12-07T08:34:39;99097.63;;;23.80;36.62
63399;BME280;49533;-34.520;150.798;2022-12-07T08:37:06;99105.97;;;23.80;36.72
63399;BME280;49533;-34.520;150.798;2022-12-07T08:39:34;99123.81;;;23.79;37.31
63399;BME280;49533;-34.520;150.798;2022-12-07T08:42:01;99127.81;;;23.78;36.33
63399;BME280;49533;-34.520;150.798;2022-12-07T08:44:28;99144.47;;;23.78;35.82
63399;BME280;49533;-34.520;150.798;2022-12-07T08:46:58;99146.88;;;23.76;36.09
63399;BME280;49533;-34.520;150.798;2022-12-07T08:49:35;99151.66;;;23.75;36.02
63399;BME280;49533;-34.520;150.798;2022-12-07T08:52:04;99134.19;;;23.75;35.68
63399;BME280;49533;-34.520;150.798;2022-12-07T08:54:34;99127.53;;;23.72;35.25
63399;BME280;49533;-34.520;150.798;2022-12-07T08:57:04;99135.03;;;23.72;35.05
63399;BME280;49533;-34.520;150.798;2022-12-07T08:59:32;99126.38;;;23.70;35.05
63399;BME280;49533;-34.520;150.798;2022-12-07T09:02:00;99120.03;;;23.69;35.00
63399;BME280;49533;-34.520;150.798;2022-12-07T09:04:28;99112.19;;;23.68;35.16
63399;BME280;49533;-34.520;150.798;2022-12-07T09:06:56;99119.38;;;23.65;35.12
63399;BME280;49533;-34.520;150.798;2022-12-07T09:09:23;99113.00;;;23.64;35.07
63399;BME280;49533;-34.520;150.798;2022-12-07T09:11:51;99115.47;;;23.62;35.13
63399;BME280;49533;-34.520;150.798;2022-12-07T09:14:18;99115.88;;;23.61;35.53
63399;BME280;49533;-34.520;150.798;2022-12-07T09:16:45;99120.66;;;23.60;35.30
63399;BME280;49533;-34.520;150.798;2022-12-07T09:19:12;99118.28;;;23.59;35.61
63399;BME280;49533;-34.520;150.798;2022-12-07T09:21:40;99128.25;;;23.56;35.37
63399;BME280;49533;-34.520;150.798;2022-12-07T09:24:07;99129.88;;;23.54;35.54
63399;BME280;49533;-34.520;150.798;2022-12-07T09:26:35;99121.22;;;23.52;35.67
63399;BME280;49533;-34.520;150.798;2022-12-07T09:29:03;99113.34;;;23.50;35.85
63399;BME280;49533;-34.520;150.798;2022-12-07T09:31:30;99106.22;;;23.49;36.04
63399;BME280;49533;-34.520;150.798;2022-12-07T09:33:59;99117.75;;;23.48;35.97
63399;BME280;49533;-34.520;150.798;2022-12-07T09:36:27;99122.94;;;23.46;36.13
63399;BME280;49533;-34.520;150.798;2022-12-07T09:38:56;99107.59;;;23.41;36.46
63399;BME280;49533;-34.520;150.798;2022-12-07T09:41:24;99093.72;;;23.41;36.58
63399;BME280;49533;-34.520;150.798;2022-12-07T09:43:54;99082.72;;;23.37;36.85
63399;BME280;49533;-34.520;150.798;2022-12-07T09:46:23;99099.72;;;23.39;37.14
63399;BME280;49533;-34.520;150.798;2022-12-07T09:48:51;99104.81;;;23.41;37.24
63399;BME280;49533;-34.520;150.798;2022-12-07T09:51:21;99098.91;;;23.39;37.41
63399;BME280;49533;-34.520;150.798;2022-12-07T09:53:50;99094.19;;;23.39;37.74
63399;BME280;49533;-34.520;150.798;2022-12-07T09:56:18;99086.63;;;23.40;38.19
63399;BME280;49533;-34.520;150.798;2022-12-07T09:58:46;99084.63;;;23.40;38.21
63399;BME280;49533;-34.520;150.798;2022-12-07T10:01:17;99078.75;;;23.38;38.45
63399;BME280;49533;-34.520;150.798;2022-12-07T10:03:55;99089.47;;;23.36;38.62
63399;BME280;49533;-34.520;150.798;2022-12-07T10:06:26;99096.22;;;23.35;38.91
63399;BME280;49533;-34.520;150.798;2022-12-07T10:08:53;99094.69;;;23.34;39.29
63399;BME280;49533;-34.520;150.798;2022-12-07T10:11:20;99098.22;;;23.35;39.61
63399;BME280;49533;-34.520;150.798;2022-12-07T10:13:51;99089.56;;;23.33;39.81
63399;BME280;49533;-34.520;150.798;2022-12-07T10:16:39;99086.78;;;23.33;39.95
63399;BME280;49533;-34.520;150.798;2022-12-07T10:19:26;99071.78;;;23.30;40.05
63399;BME280;49533;-34.520;150.798;2022-12-07T10:22:11;99093.19;;;23.30;40.39
63399;BME280;49533;-34.520;150.798;2022-12-07T10:24:40;99080.97;;;23.27;40.45
63399;BME280;49533;-34.520;150.798;2022-12-07T10:27:21;99087.69;;;23.26;40.59
63399;BME280;49533;-34.520;150.798;2022-12-07T10:29:50;99092.47;;;23.26;40.63
63399;BME280;49533;-34.520;150.798;2022-12-07T10:32:38;99078.72;;;23.22;41.04
63399;BME280;49533;-34.520;150.798;2022-12-07T10:35:23;99085.78;;;23.23;40.95
63399;BME280;49533;-34.520;150.798;2022-12-07T10:37:53;99079.47;;;23.22;41.02
63399;BME280;49533;-34.520;150.798;2022-12-07T10:40:31;99084.59;;;23.24;40.98
63399;BME280;49533;-34.520;150.798;2022-12-07T10:43:04;99076.72;;;23.22;41.26
63399;BME280;49533;-34.520;150.798;2022-12-07T10:45:34;99081.88;;;23.20;41.29
63399;BME280;49533;-34.520;150.798;2022-12-07T10:48:15;99080.34;;;23.19;41.51
63399;BME280;49533;-34.520;150.798;2022-12-07T10:51:09;99068.47;;;23.19;41.53
63399;BME280;49533;-34.520;150.798;2022-12-07T10:53:56;99078.75;;;23.18;41.85
63399;BME280;49533;-34.520;150.798;2022-12-07T10:56:44;99069.69;;;23.18;41.65
63399;BME280;49533;-34.520;150.798;2022-12-07T10:59:30;99079.22;;;23.17;41.89
63399;BME280;49533;-34.520;150.798;2022-12-07T11:02:32;99089.94;;;23.15;42.03
63399;BME280;49533;-34.520;150.798;2022-12-07T11:05:27;99103.06;;;23.11;42.33
63399;BME280;49533;-34.520;150.798;2022-12-07T11:08:16;99092.06;;;23.07;42.60
63399;BME280;49533;-34.520;150.798;2022-12-07T11:13:53;99101.72;;;22.99;43.13
63399;BME280;49533;-34.520;150.798;2022-12-07T11:16:33;99102.19;;;22.94;43.35
63399;BME280;49533;-34.520;150.798;2022-12-07T11:19:22;99104.19;;;22.93;43.39
63399;BME280;49533;-34.520;150.798;2022-12-07T11:21:58;99110.56;;;22.90;43.63
63399;BME280;49533;-34.520;150.798;2022-12-07T11:24:40;99119.44;;;22.82;43.83
63399;BME280;49533;-34.520;150.798;2022-12-07T11:27:41;99113.13;;;22.81;44.13
63399;BME280;49533;-34.520;150.798;2022-12-07T11:30:17;99124.59;;;22.79;44.04
63399;BME280;49533;-34.520;150.798;2022-12-07T11:33:08;99123.09;;;22.75;44.33
63399;BME280;49533;-34.520;150.798;2022-12-07T11:35:55;99135.41;;;22.74;44.36
63399;BME280;49533;-34.520;150.798;2022-12-07T11:38:37;99128.00;;;22.67;44.50
63399;BME280;49533;-34.520;150.798;2022-12-07T11:41:09;99129.97;;;22.67;44.59
63399;BME280;49533;-34.520;150.798;2022-12-07T11:43:59;99123.66;;;22.66;44.74
63399;BME280;49533;-34.520;150.798;2022-12-07T11:46:49;99132.38;;;22.65;44.84
63399;BME280;49533;-34.520;150.798;2022-12-07T11:49:34;99129.28;;;22.63;44.78
63399;BME280;49533;-34.520;150.798;2022-12-07T11:52:06;99131.69;;;22.61;44.79
63399;BME280;49533;-34.520;150.798;2022-12-07T11:54:42;99134.09;;;22.58;44.98
63399;BME280;49533;-34.520;150.798;2022-12-07T11:57:22;99141.31;;;22.52;45.17
63399;BME280;49533;-34.520;150.798;2022-12-07T11:59:56;99116.41;;;22.52;45.61
63399;BME280;49533;-34.520;150.798;2022-12-07T12:02:36;99128.66;;;22.51;45.44
63399;BME280;49533;-34.520;150.798;2022-12-07T12:05:19;99119.50;;;22.54;45.36
63399;BME280;49533;-34.520;150.798;2022-12-07T12:07:54;99113.56;;;22.56;45.13
63399;BME280;49533;-34.520;150.798;2022-12-07T12:10:42;99100.09;;;22.58;45.21
63399;BME280;49533;-34.520;150.798;2022-12-07T12:13:43;99100.13;;;22.54;45.24
63399;BME280;49533;-34.520;150.798;2022-12-07T12:16:44;99091.44;;;22.56;45.02
63399;BME280;49533;-34.520;150.798;2022-12-07T12:19:30;99082.41;;;22.52;45.24
63399;BME280;49533;-34.520;150.798;2022-12-07T12:22:12;99080.47;;;22.49;45.32
63399;BME280;49533;-34.520;150.798;2022-12-07T12:24:43;99096.31;;;22.48;45.28
63399;BME280;49533;-34.520;150.798;2022-12-07T12:27:23;99081.34;;;22.46;45.57
63399;BME280;49533;-34.520;150.798;2022-12-07T12:29:55;99075.03;;;22.45;45.58
63399;BME280;49533;-34.520;150.798;2022-12-07T12:32:39;99098.31;;;22.48;45.60
63399;BME280;49533;-34.520;150.798;2022-12-07T12:35:27;99088.84;;;22.45;45.44
63399;BME280;49533;-34.520;150.798;2022-12-07T12:38:26;99068.41;;;22.39;45.44
63399;BME280;49533;-34.520;150.798;2022-12-07T12:40:55;99067.63;;;22.39;45.75
63399;BME280;49533;-34.520;150.798;2022-12-07T12:43:45;99059.81;;;22.33;46.11
63399;BME280;49533;-34.520;150.798;2022-12-07T12:46:36;99041.28;;;22.30;46.13
63399;BME280;49533;-34.520;150.798;2022-12-07T12:49:36;99033.47;;;22.25;46.39
63399;BME280;49533;-34.520;150.798;2022-12-07T12:55:15;99022.13;;;22.16;46.52
63399;BME280;49533;-34.520;150.798;2022-12-07T12:58:21;99022.56;;;22.14;46.60
63399;BME280;49533;-34.520;150.798;2022-12-07T13:00:34;99007.66;;;22.08;46.96
63399;BME280;49533;-34.520;150.798;2022-12-07T13:03:02;99010.84;;;22.07;47.02
63399;BME280;49533;-34.520;150.798;2022-12-07T13:05:30;99017.56;;;22.06;47.05
63399;BME280;49533;-34.520;150.798;2022-12-07T13:08:11;99021.94;;;22.03;47.08
63399;BME280;49533;-34.520;150.798;2022-12-07T13:10:43;99001.47;;;22.01;46.96
63399;BME280;49533;-34.520;150.798;2022-12-07T13:13:32;99012.50;;;22.01;46.99